Time;durP1;ratioP1;P1;durP2;ratioP2;P2;SDS_P1;SDS_P2;PMS_P1;PMS_P2;Temp;Humidity;BMP_temperature;BMP_pressure;BME280_temperature;BME280_humidity;BME280_pressure;Samples;Min_cycle;Max_cycle;Signal;HPM_P1;HPM_P2
2022/10/23 00:01:30;;;;;;;2.53;1.40;;;20.10;99.90;;;;;;5073368;28;20053;-63
2022/10/23 00:04:19;;;;;;;0.40;0.40;;;20.10;99.90;;;;;;5075619;28;20060;-64
2022/10/23 00:06:48;;;;;;;1.23;1.10;;;20.10;99.90;;;;;;5067948;28;20048;-64
2022/10/23 00:09:20;;;;;;;0.68;0.68;;;20.10;99.90;;;;;;5068974;28;20064;-63
2022/10/23 00:11:49;;;;;;;0.65;0.65;;;20.10;99.90;;;;;;5062592;28;20089;-65
2022/10/23 00:14:20;;;;;;;2.05;1.30;;;20.00;99.90;;;;;;5059282;28;20059;-65
2022/10/23 00:16:47;;;;;;;2.30;1.15;;;20.10;99.90;;;;;;5059075;28;20504;-63
2022/10/23 00:19:15;;;;;;;0.47;0.47;;;20.10;99.90;;;;;;5057902;28;20127;-62
2022/10/23 00:21:42;;;;;;;0.47;0.47;;;20.10;99.90;;;;;;5059569;28;20148;-63
2022/10/23 00:24:10;;;;;;;0.73;0.73;;;20.10;99.90;;;;;;5055315;28;20477;-60
2022/10/23 00:26:39;;;;;;;0.57;0.57;;;20.10;99.90;;;;;;5061448;28;20048;-63
2022/10/23 00:29:09;;;;;;;2.53;0.50;;;20.10;99.90;;;;;;5041287;28;20053;-61
2022/10/23 00:31:37;;;;;;;5.72;1.20;;;20.10;99.90;;;;;;5060273;28;20508;-62
2022/10/23 00:34:07;;;;;;;;;;;20.00;99.90;;;;;;5045357;28;20045;-62
2022/10/23 00:36:35;;;;;;;1.98;1.25;;;20.00;99.90;;;;;;5034294;28;19931;-61
2022/10/23 00:39:03;;;;;;;0.40;0.40;;;20.00;99.90;;;;;;5040304;28;20060;-65
2022/10/23 00:41:31;;;;;;;0.77;0.75;;;20.00;99.90;;;;;;5055429;28;20049;-65
2022/10/23 00:44:30;;;;;;;0.38;0.38;;;20.00;99.90;;;;;;5058658;28;20049;-63
2022/10/23 00:46:59;;;;;;;1.30;0.90;;;20.00;99.90;;;;;;5056143;28;20547;-63
2022/10/23 00:49:27;;;;;;;1.38;1.05;;;20.00;99.90;;;;;;5065216;28;20408;-64
2022/10/23 00:52:03;;;;;;;0.55;0.55;;;20.00;99.90;;;;;;5053633;28;20053;-63
2022/10/23 00:54:34;;;;;;;0.60;0.60;;;20.00;99.90;;;;;;5063899;28;20045;-62
2022/10/23 00:57:04;;;;;;;0.98;0.90;;;20.00;99.90;;;;;;5042815;28;20040;-62
2022/10/23 00:59:32;;;;;;;1.05;1.02;;;20.00;99.90;;;;;;5065755;28;20049;-63
2022/10/23 01:01:59;;;;;;;0.82;0.82;;;20.00;99.90;;;;;;5059462;28;20535;-61
2022/10/23 01:04:27;;;;;;;0.75;0.75;;;20.00;99.90;;;;;;5057444;28;20044;-62
2022/10/23 01:07:17;;;;;;;0.50;0.50;;;20.00;99.90;;;;;;5055610;28;20051;-63
2022/10/23 01:09:53;;;;;;;2.10;1.02;;;20.00;99.90;;;;;;5062107;28;20503;-67
2022/10/23 01:12:38;;;;;;;0.63;0.63;;;20.00;99.90;;;;;;5056839;28;20044;-63
2022/10/23 01:15:09;;;;;;;1.55;1.02;;;20.00;99.90;;;;;;5054748;28;20056;-63
2022/10/23 01:18:07;;;;;;;2.30;1.42;;;20.00;99.90;;;;;;5044778;28;20048;-64
2022/10/23 01:20:45;;;;;;;0.40;0.40;;;20.00;99.90;;;;;;5048752;28;20052;-65
2022/10/23 01:23:47;;;;;;;0.75;0.75;;;20.00;99.90;;;;;;5058943;28;20058;-63
2022/10/23 01:26:23;;;;;;;1.00;0.80;;;20.00;99.90;;;;;;5027321;28;20125;-64
2022/10/23 01:29:06;;;;;;;0.60;0.60;;;19.90;99.90;;;;;;5049807;28;20052;-64
2022/10/23 01:31:41;;;;;;;0.40;0.40;;;19.90;99.90;;;;;;5058574;28;20041;-64
2022/10/23 01:34:19;;;;;;;2.28;1.30;;;19.90;99.90;;;;;;5026008;28;20048;-63
2022/10/23 01:36:47;;;;;;;;;;;20.00;99.90;;;;;;5050196;28;20140;-65
2022/10/23 01:39:21;;;;;;;0.55;0.55;;;20.00;99.90;;;;;;5042797;28;19924;-64
2022/10/23 01:42:01;;;;;;;0.40;0.40;;;20.00;99.90;;;;;;5042609;28;20505;-63
2022/10/23 01:44:41;;;;;;;1.38;1.25;;;19.90;99.90;;;;;;5033126;28;20060;-64
2022/10/23 01:47:11;;;;;;;1.45;0.60;;;19.90;99.90;;;;;;5048940;28;20067;-63
2022/10/23 01:49:54;;;;;;;0.55;0.55;;;20.00;99.90;;;;;;5047472;28;20049;-61
2022/10/23 01:52:22;;;;;;;1.17;0.95;;;19.90;99.90;;;;;;5048792;28;20079;-63
2022/10/23 01:54:55;;;;;;;0.30;0.30;;;19.90;99.90;;;;;;5039839;28;20406;-61
2022/10/23 01:57:25;;;;;;;0.85;0.85;;;19.90;99.90;;;;;;5037363;28;20080;-62
2022/10/23 02:00:00;;;;;;;3.10;1.80;;;19.90;99.90;;;;;;5051347;28;20045;-63
2022/10/23 02:02:31;;;;;;;0.65;0.65;;;19.90;99.90;;;;;;5046293;28;20049;-64
2022/10/23 02:05:02;;;;;;;1.55;1.17;;;19.90;99.90;;;;;;5056024;28;20155;-63
2022/10/23 02:07:29;;;;;;;1.30;1.02;;;19.90;99.90;;;;;;5066673;28;20048;-63
2022/10/23 02:09:57;;;;;;;0.70;0.70;;;19.90;99.90;;;;;;5063917;28;20051;-64
2022/10/23 02:12:43;;;;;;;0.80;0.80;;;19.90;99.90;;;;;;5049604;28;20041;-63
2022/10/23 02:15:30;;;;;;;0.50;0.50;;;19.90;99.90;;;;;;5047764;28;20060;-64
2022/10/23 02:18:12;;;;;;;1.58;1.05;;;19.90;99.90;;;;;;5060736;28;20044;-64
2022/10/23 02:20:42;;;;;;;0.95;0.95;;;19.90;99.90;;;;;;5040652;28;20072;-61
2022/10/23 02:23:21;;;;;;;0.50;0.50;;;19.90;99.90;;;;;;5068656;28;20055;-63
2022/10/23 02:26:01;;;;;;;1.00;0.90;;;19.90;99.90;;;;;;5064666;28;20059;-62
2022/10/23 02:28:44;;;;;;;0.40;0.40;;;19.90;99.90;;;;;;5044709;28;20045;-63
2022/10/23 02:31:14;;;;;;;0.47;0.47;;;19.90;99.90;;;;;;5047188;28;20507;-62
2022/10/23 02:33:44;;;;;;;1.25;0.93;;;19.90;99.90;;;;;;5059846;28;20037;-60
2022/10/23 02:36:11;;;;;;;0.57;0.57;;;19.90;99.90;;;;;;5054176;28;20037;-63
2022/10/23 02:38:41;;;;;;;2.08;1.00;;;19.90;99.90;;;;;;5045448;28;20127;-63
2022/10/23 02:41:23;;;;;;;0.93;0.93;;;19.90;99.90;;;;;;5039483;28;20053;-62
2022/10/23 02:44:20;;;;;;;1.00;0.68;;;19.90;99.90;;;;;;5050760;28;20049;-61
2022/10/23 02:47:15;;;;;;;4.30;1.42;;;19.90;99.90;;;;;;5029413;28;20053;-64
2022/10/23 02:50:24;;;;;;;2.50;1.40;;;19.80;99.90;;;;;;5065558;28;20052;-63
2022/10/23 02:53:19;;;;;;;0.40;0.40;;;19.80;99.90;;;;;;5042352;28;20071;-64
2022/10/23 02:56:01;;;;;;;0.50;0.50;;;19.80;99.90;;;;;;5041951;28;20041;-62
2022/10/23 02:58:33;;;;;;;1.75;1.10;;;19.80;99.90;;;;;;5043606;28;20511;-62
2022/10/23 03:01:11;;;;;;;0.90;0.50;;;19.90;99.90;;;;;;5042104;28;20056;-63
2022/10/23 03:03:46;;;;;;;0.40;0.40;;;19.90;99.90;;;;;;5049646;28;20051;-62
2022/10/23 03:06:15;;;;;;;0.40;0.40;;;19.80;99.90;;;;;;5054374;28;20061;-64
2022/10/23 03:08:43;;;;;;;0.40;0.40;;;19.80;99.90;;;;;;5045239;28;20051;-64
2022/10/23 03:11:10;;;;;;;0.73;0.73;;;19.90;99.90;;;;;;5059258;28;20520;-62
2022/10/23 03:13:37;;;;;;;1.20;1.10;;;19.80;99.90;;;;;;5043484;28;20055;-63
2022/10/23 03:16:05;;;;;;;0.50;0.50;;;19.80;99.90;;;;;;5062838;28;20052;-65
2022/10/23 03:18:34;;;;;;;3.00;1.70;;;19.80;99.90;;;;;;5044313;28;20561;-62
2022/10/23 03:21:02;;;;;;;0.70;0.70;;;19.80;99.90;;;;;;5048987;28;20053;-63
2022/10/23 03:23:33;;;;;;;0.80;0.80;;;19.80;99.90;;;;;;5043239;28;20397;-62
2022/10/23 03:26:01;;;;;;;0.93;0.93;;;19.80;99.90;;;;;;5044115;28;20061;-59
2022/10/23 03:28:35;;;;;;;1.23;0.85;;;19.80;99.90;;;;;;5058621;28;20072;-61
2022/10/23 03:31:03;;;;;;;1.38;0.98;;;19.80;99.90;;;;;;5067561;28;20515;-61
2022/10/23 03:33:31;;;;;;;2.40;1.15;;;19.80;99.90;;;;;;5063689;28;20515;-63
2022/10/23 03:36:07;;;;;;;0.88;0.85;;;19.80;99.90;;;;;;5066696;28;20063;-62
2022/10/23 03:38:34;;;;;;;0.85;0.85;;;19.80;99.90;;;;;;5041831;28;20064;-59
2022/10/23 03:41:03;;;;;;;2.33;0.85;;;19.80;99.90;;;;;;5060499;28;20499;-62
2022/10/23 03:43:31;;;;;;;1.27;1.05;;;19.80;99.90;;;;;;5047115;28;20048;-62
2022/10/23 03:45:59;;;;;;;0.40;0.40;;;19.80;99.90;;;;;;5062068;28;20052;-62
2022/10/23 03:48:27;;;;;;;6.32;1.15;;;19.80;99.90;;;;;;5062417;28;20040;-63
2022/10/23 03:50:57;;;;;;;0.88;0.88;;;19.80;99.90;;;;;;5060357;28;20049;-62
2022/10/23 03:53:25;;;;;;;0.43;0.43;;;19.70;99.90;;;;;;5062874;28;20081;-64
2022/10/23 03:55:52;;;;;;;0.68;0.68;;;19.80;99.90;;;;;;5048468;28;20419;-64
2022/10/23 03:58:19;;;;;;;0.30;0.30;;;19.80;99.90;;;;;;5053241;28;20044;-64
2022/10/23 04:00:46;;;;;;;0.43;0.43;;;19.80;99.90;;;;;;5032188;28;20052;-62
2022/10/23 04:03:14;;;;;;;2.80;1.50;;;19.80;99.90;;;;;;5048638;28;20061;-63
2022/10/23 04:05:41;;;;;;;0.45;0.45;;;19.70;99.90;;;;;;5050390;28;20054;-62
2022/10/23 04:08:09;;;;;;;0.38;0.38;;;19.80;99.90;;;;;;5050500;28;20436;-64
2022/10/23 04:10:37;;;;;;;0.45;0.45;;;19.80;99.90;;;;;;5050678;28;20048;-63
2022/10/23 04:13:04;;;;;;;0.50;0.50;;;19.80;99.90;;;;;;5063173;28;20049;-63
2022/10/23 04:15:35;;;;;;;1.08;0.75;;;19.80;99.90;;;;;;5042215;28;20067;-65
2022/10/23 04:18:02;;;;;;;0.40;0.40;;;19.70;99.90;;;;;;5032243;28;20148;-63
2022/10/23 04:20:31;;;;;;;0.35;0.35;;;19.70;99.90;;;;;;5044460;28;20063;-64
2022/10/23 04:23:01;;;;;;;0.60;0.60;;;19.70;99.90;;;;;;5059421;28;20045;-63
2022/10/23 04:25:28;;;;;;;2.92;1.10;;;19.70;99.90;;;;;;5075623;28;20252;-64
2022/10/23 04:27:56;;;;;;;0.40;0.40;;;19.70;99.90;;;;;;5063809;28;20053;-64
2022/10/23 04:30:23;;;;;;;0.85;0.85;;;19.70;99.90;;;;;;5051939;28;20044;-65
2022/10/23 04:32:51;;;;;;;2.58;1.25;;;19.70;99.90;;;;;;5048688;28;20064;-58
2022/10/23 04:35:19;;;;;;;0.68;0.68;;;19.70;99.90;;;;;;5069292;28;20048;-62
2022/10/23 04:37:47;;;;;;;0.45;0.38;;;19.70;99.90;;;;;;5039347;28;20048;-61
2022/10/23 04:40:14;;;;;;;0.60;0.60;;;19.70;99.90;;;;;;5058230;28;20052;-60
2022/10/23 04:42:41;;;;;;;0.63;0.63;;;19.70;99.90;;;;;;5061376;28;20087;-61
2022/10/23 04:45:09;;;;;;;0.63;0.63;;;19.70;99.90;;;;;;5064326;28;20045;-61
2022/10/23 04:47:37;;;;;;;0.47;0.47;;;19.70;99.90;;;;;;5050470;28;20486;-63
2022/10/23 04:50:05;;;;;;;0.40;0.40;;;19.70;99.90;;;;;;5052640;28;20049;-62
2022/10/23 04:52:57;;;;;;;0.40;0.40;;;19.70;99.90;;;;;;5060803;28;20048;-60
2022/10/23 04:55:53;;;;;;;0.80;0.80;;;19.70;99.90;;;;;;5066947;28;20079;-62
2022/10/23 04:58:33;;;;;;;3.38;1.30;;;19.70;99.90;;;;;;5060466;28;20048;-63
2022/10/23 05:01:01;;;;;;;3.97;0.80;;;19.70;99.90;;;;;;5064342;28;20051;-62
2022/10/23 05:03:29;;;;;;;;;;;19.70;99.90;;;;;;5052537;28;20416;-65
2022/10/23 05:05:56;;;;;;;2.53;1.30;;;19.70;99.90;;;;;;5064391;28;19928;-60
2022/10/23 05:08:43;;;;;;;1.70;1.00;;;19.70;99.90;;;;;;5048096;28;20044;-61
2022/10/23 05:11:10;;;;;;;0.40;0.40;;;19.80;99.90;;;;;;5055642;28;20041;-61
2022/10/23 05:13:43;;;;;;;2.08;1.15;;;19.80;99.90;;;;;;5037832;28;20385;-62
2022/10/23 05:16:26;;;;;;;2.25;1.33;;;19.80;99.90;;;;;;5050649;28;20041;-63
2022/10/23 05:18:53;;;;;;;0.88;0.88;;;19.80;99.90;;;;;;5046383;28;20049;-63
2022/10/23 05:21:26;;;;;;;8.10;1.48;;;19.80;99.90;;;;;;5061161;28;21840;-63
2022/10/23 05:23:53;;;;;;;0.98;0.98;;;19.80;99.90;;;;;;5060318;28;20048;-59
2022/10/23 05:26:21;;;;;;;1.27;0.80;;;19.90;99.90;;;;;;5041376;28;20083;-64
2022/10/23 05:28:51;;;;;;;1.75;1.33;;;19.90;99.90;;;;;;5037623;28;20044;-66
2022/10/23 05:31:21;;;;;;;0.40;0.40;;;19.90;99.90;;;;;;5058607;28;20052;-63
2022/10/23 05:33:51;;;;;;;1.48;0.93;;;19.90;99.90;;;;;;5060980;28;20049;-65
2022/10/23 05:36:21;;;;;;;0.43;0.43;;;19.80;99.90;;;;;;5043785;28;20598;-63
2022/10/23 05:38:54;;;;;;;1.80;1.40;;;19.80;99.90;;;;;;5064399;28;20049;-63
2022/10/23 05:41:21;;;;;;;0.35;0.35;;;19.80;99.90;;;;;;5039099;28;20059;-65
2022/10/23 05:43:48;;;;;;;1.55;1.30;;;19.80;99.90;;;;;;5058146;28;20075;-63
2022/10/23 05:46:41;;;;;;;0.65;0.65;;;19.80;99.90;;;;;;5043808;28;20055;-62
2022/10/23 05:49:46;;;;;;;1.25;1.05;;;19.80;99.90;;;;;;5000492;28;20050;-64
2022/10/23 05:52:45;;;;;;;2.33;1.63;;;19.80;99.90;;;;;;4975556;28;20399;-61
2022/10/23 05:55:36;;;;;;;0.55;0.55;;;19.80;99.90;;;;;;5013007;28;20426;-63
2022/10/23 05:58:22;;;;;;;2.35;1.55;;;19.80;99.90;;;;;;5056597;28;20523;-63
2022/10/23 06:01:11;;;;;;;5.35;3.08;;;19.50;99.90;;;;;;5041005;28;20052;-64
2022/10/23 06:04:04;;;;;;;1.08;1.08;;;19.00;99.90;;;;;;5053656;28;20076;-65
2022/10/23 06:07:10;;;;;;;0.80;0.80;;;19.00;99.90;;;;;;5050789;28;20044;-64
2022/10/23 06:09:37;;;;;;;1.83;0.85;;;19.20;99.90;;;;;;5061899;28;20051;-66
2022/10/23 06:12:05;;;;;;;0.73;0.73;;;19.40;99.90;;;;;;5046738;28;20044;-62
2022/10/23 06:14:32;;;;;;;0.50;0.50;;;19.50;99.90;;;;;;5067410;28;20412;-65
2022/10/23 06:17:00;;;;;;;0.82;0.82;;;19.50;99.90;;;;;;5029361;28;20049;-64
2022/10/23 06:19:27;;;;;;;5.95;2.83;;;19.60;99.90;;;;;;5057985;28;20335;-63
2022/10/23 06:21:56;;;;;;;0.82;0.82;;;19.70;99.90;;;;;;5060259;28;20045;-63
2022/10/23 06:24:37;;;;;;;1.65;1.15;;;19.70;99.90;;;;;;5059440;28;20057;-65
2022/10/23 06:27:10;;;;;;;0.65;0.65;;;19.70;99.90;;;;;;5066341;28;20048;-64
2022/10/23 06:29:42;;;;;;;0.80;0.80;;;19.70;99.90;;;;;;5048411;28;20045;-65
2022/10/23 06:32:09;;;;;;;3.90;2.25;;;19.60;99.90;;;;;;5072977;28;20045;-64
2022/10/23 06:34:37;;;;;;;1.83;1.08;;;19.70;99.90;;;;;;5058175;28;20055;-63
2022/10/23 06:37:07;;;;;;;1.08;0.55;;;19.70;99.90;;;;;;5052986;28;20052;-63
2022/10/23 06:39:44;;;;;;;1.90;1.10;;;19.70;99.90;;;;;;5033287;28;20064;-65
2022/10/23 06:42:14;;;;;;;0.45;0.45;;;19.70;99.90;;;;;;5045754;28;20060;-63
2022/10/23 06:45:05;;;;;;;1.48;1.38;;;19.70;99.90;;;;;;5057251;28;20057;-65
2022/10/23 06:47:52;;;;;;;0.40;0.40;;;19.70;99.90;;;;;;5063716;28;20064;-65
2022/10/23 06:50:38;;;;;;;1.45;1.10;;;19.70;99.90;;;;;;5066813;28;20048;-66
2022/10/23 06:53:11;;;;;;;1.02;0.98;;;19.70;99.90;;;;;;5058906;28;20045;-64
2022/10/23 06:55:43;;;;;;;1.08;0.85;;;19.70;99.90;;;;;;5048444;28;20055;-60
2022/10/23 06:58:11;;;;;;;2.17;1.50;;;19.70;99.90;;;;;;5058939;28;20060;-58
2022/10/23 07:00:54;;;;;;;1.30;0.82;;;19.70;99.90;;;;;;5060619;28;20420;-60
2022/10/23 07:03:21;;;;;;;0.57;0.57;;;19.70;99.90;;;;;;5059238;28;20049;-61
2022/10/23 07:05:49;;;;;;;0.80;0.80;;;19.70;99.90;;;;;;5069784;28;20056;-68
2022/10/23 07:08:16;;;;;;;2.30;1.45;;;19.70;99.90;;;;;;5044109;28;20049;-63
2022/10/23 07:10:46;;;;;;;1.23;1.13;;;19.70;99.90;;;;;;5049695;28;20056;-63
2022/10/23 07:13:15;;;;;;;2.03;1.20;;;19.80;99.90;;;;;;5048566;28;20052;-63
2022/10/23 07:15:57;;;;;;;0.50;0.50;;;19.80;99.90;;;;;;5069614;28;20051;-62
2022/10/23 07:18:26;;;;;;;19.40;4.20;;;19.90;99.90;;;;;;5054257;28;20497;-60
2022/10/23 07:21:28;;;;;;;16.63;1.33;;;19.80;99.90;;;;;;5032782;28;20431;-60
2022/10/23 07:24:06;;;;;;;1.13;1.13;;;19.90;99.90;;;;;;5027439;28;20045;-60
2022/10/23 07:26:38;;;;;;;0.52;0.52;;;19.90;99.90;;;;;;5058374;28;20053;-62
2022/10/23 07:29:06;;;;;;;3.08;1.52;;;19.90;99.90;;;;;;5063009;28;20420;-59
2022/10/23 07:31:33;;;;;;;1.48;1.38;;;19.90;99.90;;;;;;5032760;28;20049;-57
2022/10/23 07:34:20;;;;;;;3.78;1.75;;;19.90;99.90;;;;;;5070227;28;20055;-64
2022/10/23 07:36:58;;;;;;;0.77;0.70;;;19.90;99.90;;;;;;5051047;28;20053;-61
2022/10/23 07:39:25;;;;;;;2.30;1.33;;;19.90;99.90;;;;;;5053408;28;20056;-62
2022/10/23 07:41:52;;;;;;;3.15;0.70;;;19.90;99.90;;;;;;5050218;28;20061;-61
2022/10/23 07:44:20;;;;;;;0.60;0.60;;;19.90;99.90;;;;;;5045542;28;20048;-65
2022/10/23 07:46:51;;;;;;;0.70;0.70;;;19.90;99.90;;;;;;5066242;28;20045;-63
2022/10/23 07:49:19;;;;;;;0.40;0.40;;;19.90;99.90;;;;;;5041887;28;20091;-62
2022/10/23 07:51:47;;;;;;;1.48;1.38;;;19.90;99.90;;;;;;5059976;28;20048;-65
2022/10/23 07:54:19;;;;;;;37.10;3.83;;;19.90;99.90;;;;;;5056826;28;20041;-66
2022/10/23 07:56:59;;;;;;;1.95;1.13;;;19.90;99.90;;;;;;5070173;28;20056;-63
2022/10/23 07:59:47;;;;;;;0.70;0.70;;;19.90;99.90;;;;;;5053010;28;20508;-64
2022/10/23 08:02:19;;;;;;;0.50;0.50;;;19.90;99.90;;;;;;5051469;28;20052;-65
2022/10/23 08:04:49;;;;;;;1.27;1.10;;;19.90;99.90;;;;;;5059055;28;20053;-64
2022/10/23 08:07:25;;;;;;;0.70;0.70;;;19.90;99.90;;;;;;5059307;28;20053;-63
2022/10/23 08:09:55;;;;;;;2.90;1.30;;;19.90;99.90;;;;;;5042268;28;20060;-66
2022/10/23 08:12:24;;;;;;;3.03;1.75;;;19.90;99.90;;;;;;5037507;28;20067;-65
2022/10/23 08:14:53;;;;;;;3.85;1.75;;;19.90;99.90;;;;;;5041078;28;20044;-65
2022/10/23 08:17:22;;;;;;;0.90;0.90;;;19.90;99.90;;;;;;5046350;28;20393;-66
2022/10/23 08:19:54;;;;;;;0.73;0.73;;;19.90;99.90;;;;;;5062732;28;20063;-66
2022/10/23 08:22:23;;;;;;;0.77;0.77;;;19.90;99.90;;;;;;5045887;28;20072;-68
2022/10/23 08:24:51;;;;;;;3.65;1.23;;;19.80;99.90;;;;;;5045013;28;20447;-63
2022/10/23 08:27:18;;;;;;;5.22;1.65;;;19.90;99.90;;;;;;5062271;28;20067;-68
2022/10/23 08:29:47;;;;;;;0.70;0.70;;;19.80;99.90;;;;;;5048135;28;20068;-66
2022/10/23 08:32:14;;;;;;;0.63;0.63;;;19.90;99.90;;;;;;5047833;28;20052;-65
2022/10/23 08:34:54;;;;;;;0.40;0.40;;;19.80;99.90;;;;;;5051465;28;20056;-59
2022/10/23 08:37:23;;;;;;;1.27;1.08;;;19.60;99.90;;;;;;5059033;28;20052;-64
2022/10/23 08:39:51;;;;;;;6.65;1.92;;;19.30;99.90;;;;;;5067346;28;20044;-63
2022/10/23 08:42:26;;;;;;;0.68;0.57;;;19.10;99.90;;;;;;5030148;28;20528;-61
2022/10/23 08:45:27;;;;;;;0.75;0.75;;;19.00;99.90;;;;;;5059697;28;20055;-62
2022/10/23 08:48:12;;;;;;;0.55;0.55;;;19.00;99.90;;;;;;5048117;28;20044;-63
2022/10/23 08:50:43;;;;;;;0.80;0.80;;;19.20;99.90;;;;;;5065785;28;21045;-63
2022/10/23 08:53:19;;;;;;;1.23;0.98;;;19.30;99.90;;;;;;5062924;28;20519;-63
2022/10/23 08:56:00;;;;;;;0.73;0.73;;;19.40;99.90;;;;;;5061322;28;20040;-60
2022/10/23 08:58:44;;;;;;;1.08;0.80;;;19.50;99.90;;;;;;5047069;28;20443;-62
2022/10/23 09:01:33;;;;;;;0.75;0.75;;;19.50;99.90;;;;;;5062277;28;20049;-60
2022/10/23 09:04:01;;;;;;;1.90;1.75;;;19.50;99.90;;;;;;5064856;28;20052;-59
2022/10/23 09:06:39;;;;;;;0.73;0.73;;;19.60;99.90;;;;;;5058273;28;20041;-64
2022/10/23 09:09:38;;;;;;;2.63;1.20;;;19.50;99.90;;;;;;5062657;28;20053;-64
2022/10/23 09:12:16;;;;;;;1.00;1.00;;;19.60;99.90;;;;;;5068310;28;20385;-63
2022/10/23 09:15:11;;;;;;;0.43;0.43;;;19.60;99.90;;;;;;5021451;28;20061;-64
2022/10/23 09:17:41;;;;;;;0.70;0.70;;;19.60;99.90;;;;;;5068071;28;20510;-64
2022/10/23 09:20:23;;;;;;;0.52;0.52;;;19.60;99.90;;;;;;5058937;28;20045;-64
2022/10/23 09:22:59;;;;;;;0.80;0.80;;;19.70;99.90;;;;;;5046886;28;20049;-63
2022/10/23 09:25:35;;;;;;;0.70;0.70;;;19.70;99.90;;;;;;5061813;28;20040;-65
2022/10/23 09:28:04;;;;;;;1.00;1.00;;;19.70;99.90;;;;;;5056153;28;20299;-61
2022/10/23 09:30:33;;;;;;;5.55;2.42;;;19.70;99.90;;;;;;5065432;28;20036;-64
2022/10/23 09:33:17;;;;;;;0.75;0.75;;;19.70;99.90;;;;;;5059512;28;20052;-62
2022/10/23 09:36:01;;;;;;;1.85;1.27;;;19.70;99.90;;;;;;5041462;28;20052;-63
2022/10/23 09:38:45;;;;;;;0.77;0.77;;;19.80;99.90;;;;;;5067775;28;20152;-64
2022/10/23 09:41:20;;;;;;;1.48;1.25;;;19.80;99.90;;;;;;5064064;28;20067;-66
2022/10/23 09:44:00;;;;;;;0.40;0.40;;;19.80;99.90;;;;;;5054983;28;20052;-64
2022/10/23 09:46:54;;;;;;;0.85;0.70;;;19.90;99.90;;;;;;5048170;28;20409;-66
2022/10/23 09:49:24;;;;;;;0.60;0.60;;;19.90;99.90;;;;;;5057930;28;20056;-63
2022/10/23 09:52:00;;;;;;;0.60;0.60;;;19.80;99.90;;;;;;5060700;28;20428;-64
2022/10/23 09:54:35;;;;;;;1.25;0.95;;;19.90;99.90;;;;;;5054874;28;20056;-65
2022/10/23 09:57:25;;;;;;;0.73;0.73;;;19.90;99.90;;;;;;5054720;28;20044;-60
2022/10/23 09:59:56;;;;;;;1.63;1.13;;;19.80;99.90;;;;;;5059702;28;20047;-63
2022/10/23 10:02:27;;;;;;;2.53;1.40;;;19.80;99.90;;;;;;5058969;28;20049;-60
2022/10/23 10:05:41;;;;;;;0.68;0.68;;;19.80;99.90;;;;;;5069021;28;20063;-62
2022/10/23 10:08:43;;;;;;;0.47;0.47;;;19.90;99.90;;;;;;5050745;28;20057;-62
2022/10/23 10:11:18;;;;;;;2.83;1.67;;;19.80;99.90;;;;;;5068082;28;20053;-61
2022/10/23 10:14:35;;;;;;;3.47;1.95;;;19.80;99.90;;;;;;5065185;28;20056;-62
2022/10/23 10:17:18;;;;;;;5.07;1.98;;;19.80;99.90;;;;;;4988741;28;20058;-61
2022/10/23 10:20:03;;;;;;;0.60;0.60;;;19.80;99.90;;;;;;5045421;28;20111;-60
2022/10/23 10:22:52;;;;;;;;;;;19.70;99.90;;;;;;5065089;28;20416;-58
2022/10/23 10:25:30;;;;;;;0.95;0.95;;;19.80;99.90;;;;;;5063192;28;19924;-62
2022/10/23 10:28:00;;;;;;;0.52;0.52;;;19.80;99.90;;;;;;5063523;28;20045;-60
2022/10/23 10:30:40;;;;;;;0.60;0.60;;;19.80;99.90;;;;;;5064801;28;20491;-62
2022/10/23 10:33:19;;;;;;;11.20;2.47;;;19.90;99.90;;;;;;5065763;28;20424;-65
2022/10/23 10:35:56;;;;;;;0.30;0.30;;;19.90;99.90;;;;;;5060675;28;20111;-61
2022/10/23 10:38:51;;;;;;;1.35;1.23;;;19.90;99.90;;;;;;5060710;28;20496;-63
2022/10/23 10:41:36;;;;;;;0.43;0.43;;;19.90;99.90;;;;;;5061567;28;20048;-64
2022/10/23 10:44:12;;;;;;;2.28;1.15;;;19.90;99.90;;;;;;5067645;28;20048;-60
2022/10/23 10:47:02;;;;;;;0.70;0.70;;;19.90;99.90;;;;;;5077098;28;20052;-62
2022/10/23 10:49:49;;;;;;;1.25;0.88;;;19.90;99.90;;;;;;5051614;28;20055;-64
2022/10/23 10:52:35;;;;;;;0.60;0.60;;;19.90;99.90;;;;;;5073525;28;20041;-58
2022/10/23 10:55:24;;;;;;;0.50;0.50;;;19.80;99.90;;;;;;5073625;28;20044;-62
2022/10/23 10:57:58;;;;;;;3.88;1.77;;;19.80;99.90;;;;;;5060802;28;20052;-62
2022/10/23 11:00:30;;;;;;;1.10;0.95;;;19.70;99.90;;;;;;5062520;28;20053;-60
2022/10/23 11:03:03;;;;;;;1.45;1.05;;;19.70;99.90;;;;;;5055563;28;20416;-62
2022/10/23 11:05:40;;;;;;;1.50;1.40;;;19.70;99.90;;;;;;5065805;28;20048;-61
2022/10/23 11:08:10;;;;;;;3.05;1.00;;;19.70;99.90;;;;;;5059400;28;20056;-61
2022/10/23 11:10:41;;;;;;;0.40;0.40;;;19.60;99.90;;;;;;5063896;28;20395;-61
2022/10/23 11:13:28;;;;;;;1.00;1.00;;;19.60;99.90;;;;;;5047731;28;20472;-63
2022/10/23 11:16:03;;;;;;;0.50;0.50;;;19.60;99.90;;;;;;5064570;28;20060;-64
2022/10/23 11:18:32;;;;;;;1.75;0.98;;;19.60;99.90;;;;;;5063969;28;20041;-62
2022/10/23 11:21:31;;;;;;;0.80;0.80;;;19.60;99.90;;;;;;5061200;28;20045;-62
2022/10/23 11:23:58;;;;;;;1.23;1.15;;;19.60;99.90;;;;;;5039685;28;20049;-67
2022/10/23 11:26:31;;;;;;;0.50;0.50;;;19.70;99.90;;;;;;5061174;28;20064;-63
2022/10/23 11:29:17;;;;;;;0.50;0.50;;;19.70;99.90;;;;;;5059249;28;20059;-61
2022/10/23 11:32:23;;;;;;;2.72;2.00;;;19.80;99.90;;;;;;5066091;28;20045;-66
2022/10/23 11:35:00;;;;;;;0.40;0.40;;;19.80;99.90;;;;;;5046679;28;20059;-66
2022/10/23 11:37:27;;;;;;;0.70;0.70;;;19.80;99.90;;;;;;5066179;28;20169;-67
2022/10/23 11:40:19;;;;;;;0.88;0.88;;;19.90;99.90;;;;;;5063599;28;20309;-66
2022/10/23 11:42:49;;;;;;;3.30;1.23;;;19.90;99.90;;;;;;5057878;28;20060;-64
2022/10/23 11:45:39;;;;;;;0.43;0.43;;;19.90;99.90;;;;;;5046342;28;20049;-64
2022/10/23 11:48:21;;;;;;;1.55;1.30;;;19.90;99.90;;;;;;5061517;28;20048;-65
2022/10/23 11:50:53;;;;;;;0.80;0.80;;;19.90;99.90;;;;;;5064247;28;20067;-64
2022/10/23 11:53:38;;;;;;;3.20;2.20;;;19.90;99.90;;;;;;5055892;28;20048;-63
2022/10/23 11:56:11;;;;;;;0.32;0.32;;;19.90;99.90;;;;;;5057604;28;20060;-61
2022/10/23 11:58:56;;;;;;;0.98;0.90;;;19.90;99.90;;;;;;5064775;28;20056;-61
2022/10/23 12:01:44;;;;;;;1.25;1.05;;;19.90;99.90;;;;;;5056935;28;20295;-63
2022/10/23 12:04:11;;;;;;;1.52;1.42;;;20.00;99.90;;;;;;5062264;28;20052;-62
2022/10/23 12:06:46;;;;;;;0.70;0.70;;;20.00;99.90;;;;;;5068433;28;20408;-60
2022/10/23 12:09:42;;;;;;;1.27;1.17;;;20.00;99.90;;;;;;5046007;28;20056;-61
2022/10/23 12:12:09;;;;;;;1.40;1.02;;;20.00;99.90;;;;;;5068781;28;20495;-57
2022/10/23 12:14:48;;;;;;;0.52;0.52;;;20.00;99.90;;;;;;5067053;28;20071;-64
2022/10/23 12:17:21;;;;;;;0.75;0.75;;;20.00;99.90;;;;;;5064226;28;20048;-65
2022/10/23 12:20:00;;;;;;;1.23;1.02;;;20.00;99.90;;;;;;5045784;28;20792;-64
2022/10/23 12:22:38;;;;;;;0.40;0.40;;;20.00;99.90;;;;;;5062940;28;20149;-64
2022/10/23 12:25:34;;;;;;;0.57;0.57;;;20.00;99.90;;;;;;5057488;28;20044;-61
2022/10/23 12:28:26;;;;;;;2.70;1.77;;;20.00;99.90;;;;;;5063633;28;20064;-60
2022/10/23 12:31:29;;;;;;;1.85;1.48;;;20.00;99.90;;;;;;5065910;28;20072;-62
2022/10/23 12:34:11;;;;;;;5.68;2.88;;;20.00;99.90;;;;;;5063406;28;20060;-63
2022/10/23 12:36:50;;;;;;;5.88;4.18;;;20.10;99.90;;;;;;5061492;28;20044;-60
2022/10/23 12:39:36;;;;;;;8.45;3.70;;;20.10;99.90;;;;;;5061225;28;20040;-61
2022/10/23 12:42:09;;;;;;;4.82;2.58;;;20.10;99.90;;;;;;5058382;28;20044;-65
2022/10/23 12:44:37;;;;;;;1.58;1.48;;;20.10;99.90;;;;;;5041893;28;20400;-65
2022/10/23 12:47:05;;;;;;;9.02;3.28;;;20.00;99.90;;;;;;5059107;28;20045;-65
2022/10/23 12:49:34;;;;;;;;;;;20.00;99.90;;;;;;5059700;28;20065;-65
2022/10/23 12:52:04;;;;;;;37.40;7.40;;;20.00;99.90;;;;;;5054044;28;19924;-65
2022/10/23 12:54:37;;;;;;;5.15;3.30;;;19.90;99.90;;;;;;5067301;28;20059;-59
2022/10/23 12:57:19;;;;;;;6.85;3.95;;;19.90;99.90;;;;;;5077731;28;20041;-66
2022/10/23 12:59:48;;;;;;;0.93;0.90;;;20.00;99.90;;;;;;5075951;28;20056;-64
2022/10/23 13:02:26;;;;;;;2.85;1.85;;;19.90;99.90;;;;;;5076467;28;20048;-65
2022/10/23 13:04:57;;;;;;;1.08;1.08;;;19.90;99.90;;;;;;5058615;28;20075;-66
2022/10/23 13:07:30;;;;;;;2.30;1.67;;;19.90;99.90;;;;;;5068321;28;20056;-65
2022/10/23 13:10:02;;;;;;;2.72;1.90;;;19.90;99.90;;;;;;5044574;28;20404;-66
2022/10/23 13:12:35;;;;;;;1.60;1.50;;;19.90;99.90;;;;;;5035076;28;20036;-61
2022/10/23 13:15:05;;;;;;;2.65;1.27;;;19.90;99.90;;;;;;5054877;28;20056;-66
2022/10/23 13:17:37;;;;;;;3.15;1.77;;;19.90;99.90;;;;;;5043979;28;20059;-66
2022/10/23 13:20:25;;;;;;;1.20;1.10;;;19.90;99.90;;;;;;5058329;28;20045;-65
2022/10/23 13:23:07;;;;;;;5.57;2.20;;;19.90;99.90;;;;;;5056610;28;20208;-64
2022/10/23 13:25:36;;;;;;;1.45;1.17;;;19.90;99.90;;;;;;5057934;28;20056;-68
2022/10/23 13:28:06;;;;;;;8.57;1.70;;;19.90;99.90;;;;;;5050953;28;20605;-63
2022/10/23 13:30:41;;;;;;;3.35;1.75;;;19.90;99.90;;;;;;5062346;28;20566;-65
2022/10/23 13:33:23;;;;;;;2.90;2.15;;;19.90;99.90;;;;;;5058554;28;20129;-64